sensor_id;sensor_type;location;lat;lon;timestamp;pressure;altitude;pressure_sealevel;temperature;humidity
33185;BME280;19550;42.872;25.494;2022-10-26T00:00:08;96740.72;;;10.57;100.00
33185;BME280;19550;42.872;25.494;2022-10-26T00:02:35;96739.47;;;10.63;100.00
33185;BME280;19550;42.872;25.494;2022-10-26T00:05:02;96745.72;;;10.68;100.00
33185;BME280;19550;42.872;25.494;2022-10-26T00:07:28;96763.59;;;10.62;100.00
33185;BME280;19550;42.872;25.494;2022-10-26T00:09:55;96763.00;;;10.52;100.00
33185;BME280;19550;42.872;25.494;2022-10-26T00:12:22;96762.16;;;10.51;100.00
33185;BME280;19550;42.872;25.494;2022-10-26T00:14:50;96760.44;;;10.55;100.00
33185;BME280;19550;42.872;25.494;2022-10-26T00:17:17;96748.66;;;10.36;100.00
33185;BME280;19550;42.872;25.494;2022-10-26T00:19:44;96752.44;;;10.40;100.00
33185;BME280;19550;42.872;25.494;2022-10-26T00:22:11;96759.00;;;10.44;100.00
33185;BME280;19550;42.872;25.494;2022-10-26T00:24:38;96756.88;;;10.41;100.00
33185;BME280;19550;42.872;25.494;2022-10-26T00:27:04;96768.13;;;10.45;100.00
33185;BME280;19550;42.872;25.494;2022-10-26T00:29:31;96768.78;;;10.42;100.00
33185;BME280;19550;42.872;25.494;2022-10-26T00:32:00;96763.63;;;10.49;100.00
33185;BME280;19550;42.872;25.494;2022-10-26T00:34:26;96754.41;;;10.40;100.00
33185;BME280;19550;42.872;25.494;2022-10-26T00:36:53;96757.59;;;10.33;100.00
33185;BME280;19550;42.872;25.494;2022-10-26T00:39:20;96759.13;;;10.39;100.00
33185;BME280;19550;42.872;25.494;2022-10-26T00:41:47;96763.84;;;10.39;100.00
33185;BME280;19550;42.872;25.494;2022-10-26T00:47:25;96763.00;;;10.38;100.00
33185;BME280;19550;42.872;25.494;2022-10-26T00:49:55;96761.06;;;10.39;100.00
33185;BME280;19550;42.872;25.494;2022-10-26T00:52:23;96762.53;;;10.36;100.00
33185;BME280;19550;42.872;25.494;2022-10-26T00:54:51;96756.25;;;10.30;100.00
33185;BME280;19550;42.872;25.494;2022-10-26T00:57:18;96759.53;;;10.32;100.00
33185;BME280;19550;42.872;25.494;2022-10-26T00:59:46;96767.66;;;10.29;100.00
33185;BME280;19550;42.872;25.494;2022-10-26T01:02:13;96752.34;;;10.31;100.00
33185;BME280;19550;42.872;25.494;2022-10-26T01:04:43;96761.41;;;10.37;100.00
33185;BME280;19550;42.872;25.494;2022-10-26T01:07:11;96774.50;;;10.45;100.00
33185;BME280;19550;42.872;25.494;2022-10-26T01:09:39;96766.31;;;10.40;100.00
33185;BME280;19550;42.872;25.494;2022-10-26T01:12:06;96764.53;;;10.44;100.00
33185;BME280;19550;42.872;25.494;2022-10-26T01:14:33;96765.72;;;10.29;100.00
33185;BME280;19550;42.872;25.494;2022-10-26T01:17:06;96771.47;;;10.19;100.00
33185;BME280;19550;42.872;25.494;2022-10-26T01:20:00;96767.56;;;10.20;100.00
33185;BME280;19550;42.872;25.494;2022-10-26T01:22:38;96765.31;;;10.22;100.00
33185;BME280;19550;42.872;25.494;2022-10-26T01:25:15;96762.63;;;10.31;100.00
33185;BME280;19550;42.872;25.494;2022-10-26T01:27:48;96754.50;;;10.34;100.00
33185;BME280;19550;42.872;25.494;2022-10-26T01:30:21;96757.44;;;10.52;100.00
33185;BME280;19550;42.872;25.494;2022-10-26T01:33:09;96750.25;;;10.51;100.00
33185;BME280;19550;42.872;25.494;2022-10-26T01:35:45;96746.66;;;10.86;100.00
33185;BME280;19550;42.872;25.494;2022-10-26T01:38:23;96755.06;;;10.95;100.00
33185;BME280;19550;42.872;25.494;2022-10-26T01:40:57;96758.97;;;10.94;100.00
33185;BME280;19550;42.872;25.494;2022-10-26T01:43:28;96766.34;;;10.98;100.00
33185;BME280;19550;42.872;25.494;2022-10-26T01:45:59;96766.34;;;10.98;100.00
33185;BME280;19550;42.872;25.494;2022-10-26T01:48:28;96762.88;;;10.93;100.00
33185;BME280;19550;42.872;25.494;2022-10-26T01:50:56;96753.72;;;10.92;100.00
33185;BME280;19550;42.872;25.494;2022-10-26T01:53:25;96761.75;;;11.16;100.00
33185;BME280;19550;42.872;25.494;2022-10-26T01:55:54;96755.94;;;11.26;100.00
33185;BME280;19550;42.872;25.494;2022-10-26T01:58:42;96755.31;;;11.29;100.00
33185;BME280;19550;42.872;25.494;2022-10-26T02:01:27;96751.66;;;11.20;100.00
33185;BME280;19550;42.872;25.494;2022-10-26T02:04:03;96752.09;;;11.13;100.00
33185;BME280;19550;42.872;25.494;2022-10-26T02:06:40;96747.75;;;11.21;100.00
33185;BME280;19550;42.872;25.494;2022-10-26T02:09:15;96748.56;;;11.22;100.00
33185;BME280;19550;42.872;25.494;2022-10-26T02:11:48;96751.22;;;11.27;100.00
33185;BME280;19550;42.872;25.494;2022-10-26T02:14:20;96745.44;;;11.45;100.00
33185;BME280;19550;42.872;25.494;2022-10-26T02:16:52;96749.50;;;11.70;100.00
33185;BME280;19550;42.872;25.494;2022-10-26T02:19:31;96747.94;;;11.78;100.00
33185;BME280;19550;42.872;25.494;2022-10-26T02:22:04;96743.59;;;11.94;100.00
33185;BME280;19550;42.872;25.494;2022-10-26T02:24:32;96747.59;;;12.19;100.00
33185;BME280;19550;42.872;25.494;2022-10-26T02:27:01;96740.78;;;12.33;100.00
33185;BME280;19550;42.872;25.494;2022-10-26T02:29:30;96740.44;;;12.26;100.00
33185;BME280;19550;42.872;25.494;2022-10-26T02:32:01;96739.97;;;12.33;100.00
33185;BME280;19550;42.872;25.494;2022-10-26T02:34:29;96744.25;;;12.48;100.00
33185;BME280;19550;42.872;25.494;2022-10-26T02:36:58;96739.97;;;12.33;100.00
33185;BME280;19550;42.872;25.494;2022-10-26T02:39:29;96754.22;;;12.57;100.00
33185;BME280;19550;42.872;25.494;2022-10-26T02:42:00;96764.53;;;12.57;100.00
33185;BME280;19550;42.872;25.494;2022-10-26T02:44:31;96763.19;;;12.46;100.00
33185;BME280;19550;42.872;25.494;2022-10-26T02:47:00;96773.78;;;12.26;100.00
33185;BME280;19550;42.872;25.494;2022-10-26T02:49:28;96779.81;;;12.20;100.00
33185;BME280;19550;42.872;25.494;2022-10-26T02:52:01;96783.88;;;12.14;100.00
33185;BME280;19550;42.872;25.494;2022-10-26T02:54:34;96788.00;;;12.16;100.00
33185;BME280;19550;42.872;25.494;2022-10-26T02:57:07;96775.84;;;12.12;100.00
33185;BME280;19550;42.872;25.494;2022-10-26T02:59:40;96785.16;;;12.08;100.00
33185;BME280;19550;42.872;25.494;2022-10-26T03:02:10;96787.38;;;11.97;100.00
33185;BME280;19550;42.872;25.494;2022-10-26T03:04:39;96789.72;;;12.04;100.00
33185;BME280;19550;42.872;25.494;2022-10-26T03:07:06;96792.16;;;11.97;100.00
33185;BME280;19550;42.872;25.494;2022-10-26T03:09:33;96797.06;;;12.00;100.00
33185;BME280;19550;42.872;25.494;2022-10-26T03:11:59;96798.13;;;11.90;100.00
33185;BME280;19550;42.872;25.494;2022-10-26T03:14:26;96793.28;;;11.96;100.00
33185;BME280;19550;42.872;25.494;2022-10-26T03:16:53;96799.16;;;11.94;100.00
33185;BME280;19550;42.872;25.494;2022-10-26T03:19:21;96809.53;;;11.80;100.00
33185;BME280;19550;42.872;25.494;2022-10-26T03:21:48;96798.34;;;11.71;100.00
33185;BME280;19550;42.872;25.494;2022-10-26T03:24:15;96804.84;;;11.67;100.00
33185;BME280;19550;42.872;25.494;2022-10-26T03:26:42;96809.59;;;11.66;100.00
33185;BME280;19550;42.872;25.494;2022-10-26T03:29:09;96805.47;;;11.64;100.00
33185;BME280;19550;42.872;25.494;2022-10-26T03:31:36;96810.28;;;11.72;100.00
33185;BME280;19550;42.872;25.494;2022-10-26T03:34:02;96812.81;;;11.82;100.00
33185;BME280;19550;42.872;25.494;2022-10-26T03:36:31;96799.72;;;11.74;100.00
33185;BME280;19550;42.872;25.494;2022-10-26T03:38:58;96800.88;;;11.59;100.00
33185;BME280;19550;42.872;25.494;2022-10-26T03:41:25;96802.22;;;11.39;100.00
33185;BME280;19550;42.872;25.494;2022-10-26T03:43:52;96804.13;;;11.30;100.00
33185;BME280;19550;42.872;25.494;2022-10-26T03:46:19;96805.28;;;11.29;100.00
33185;BME280;19550;42.872;25.494;2022-10-26T03:48:46;96803.94;;;11.27;100.00
33185;BME280;19550;42.872;25.494;2022-10-26T03:51:12;96800.59;;;11.16;100.00
33185;BME280;19550;42.872;25.494;2022-10-26T03:53:41;96805.94;;;11.12;100.00
33185;BME280;19550;42.872;25.494;2022-10-26T03:56:07;96805.56;;;11.05;100.00
33185;BME280;19550;42.872;25.494;2022-10-26T03:58:34;96803.63;;;11.28;100.00
33185;BME280;19550;42.872;25.494;2022-10-26T04:01:01;96806.16;;;11.16;100.00
33185;BME280;19550;42.872;25.494;2022-10-26T04:03:28;96803.91;;;11.04;100.00
33185;BME280;19550;42.872;25.494;2022-10-26T04:05:55;96815.44;;;10.98;100.00
33185;BME280;19550;42.872;25.494;2022-10-26T04:08:22;96819.47;;;10.92;100.00
33185;BME280;19550;42.872;25.494;2022-10-26T04:10:50;96820.72;;;10.86;100.00
33185;BME280;19550;42.872;25.494;2022-10-26T04:13:17;96812.81;;;10.79;100.00
33185;BME280;19550;42.872;25.494;2022-10-26T04:15:44;96817.44;;;10.84;100.00
33185;BME280;19550;42.872;25.494;2022-10-26T04:18:11;96818.06;;;10.81;100.00
33185;BME280;19550;42.872;25.494;2022-10-26T04:20:38;96822.19;;;10.83;100.00
33185;BME280;19550;42.872;25.494;2022-10-26T04:23:09;96827.25;;;10.67;100.00
33185;BME280;19550;42.872;25.494;2022-10-26T04:25:37;96814.72;;;10.70;100.00
33185;BME280;19550;42.872;25.494;2022-10-26T04:28:06;96819.13;;;10.57;100.00
33185;BME280;19550;42.872;25.494;2022-10-26T04:30:34;96830.97;;;10.63;100.00
33185;BME280;19550;42.872;25.494;2022-10-26T04:33:02;96836.56;;;10.71;100.00
33185;BME280;19550;42.872;25.494;2022-10-26T04:35:29;96839.84;;;10.73;100.00
33185;BME280;19550;42.872;25.494;2022-10-26T04:37:57;96834.84;;;10.75;100.00
33185;BME280;19550;42.872;25.494;2022-10-26T04:40:24;96824.34;;;10.72;100.00
33185;BME280;19550;42.872;25.494;2022-10-26T04:42:51;96839.53;;;10.89;100.00
33185;BME280;19550;42.872;25.494;2022-10-26T04:45:20;96839.81;;;10.87;100.00
33185;BME280;19550;42.872;25.494;2022-10-26T04:47:47;96851.53;;;10.84;100.00
33185;BME280;19550;42.872;25.494;2022-10-26T04:50:14;96844.16;;;10.80;100.00
33185;BME280;19550;42.872;25.494;2022-10-26T04:52:40;96847.75;;;10.80;100.00
33185;BME280;19550;42.872;25.494;2022-10-26T04:55:07;96845.41;;;10.73;100.00
33185;BME280;19550;42.872;25.494;2022-10-26T04:57:34;96834.63;;;10.58;100.00
33185;BME280;19550;42.872;25.494;2022-10-26T05:00:03;96851.25;;;10.58;100.00
33185;BME280;19550;42.872;25.494;2022-10-26T05:02:31;96859.59;;;10.58;100.00
33185;BME280;19550;42.872;25.494;2022-10-26T05:04:58;96865.88;;;10.50;100.00
33185;BME280;19550;42.872;25.494;2022-10-26T05:07:25;96871.00;;;10.43;100.00
33185;BME280;19550;42.872;25.494;2022-10-26T05:09:52;96873.66;;;10.48;100.00
33185;BME280;19550;42.872;25.494;2022-10-26T05:12:19;96870.38;;;10.46;100.00
33185;BME280;19550;42.872;25.494;2022-10-26T05:14:46;96866.66;;;10.51;100.00
33185;BME280;19550;42.872;25.494;2022-10-26T05:17:12;96873.13;;;10.60;100.00
33185;BME280;19550;42.872;25.494;2022-10-26T05:19:41;96869.63;;;10.82;100.00
33185;BME280;19550;42.872;25.494;2022-10-26T05:22:08;96865.09;;;10.86;100.00
33185;BME280;19550;42.872;25.494;2022-10-26T05:24:34;96875.63;;;10.97;100.00
33185;BME280;19550;42.872;25.494;2022-10-26T05:27:01;96867.28;;;11.11;100.00
33185;BME280;19550;42.872;25.494;2022-10-26T05:29:28;96873.44;;;11.22;100.00
33185;BME280;19550;42.872;25.494;2022-10-26T05:31:55;96876.59;;;11.29;100.00
33185;BME280;19550;42.872;25.494;2022-10-26T05:34:22;96871.63;;;11.39;100.00
33185;BME280;19550;42.872;25.494;2022-10-26T05:36:53;96881.03;;;11.52;100.00
33185;BME280;19550;42.872;25.494;2022-10-26T05:39:20;96883.06;;;11.60;100.00
33185;BME280;19550;42.872;25.494;2022-10-26T05:41:46;96888.69;;;11.69;100.00
33185;BME280;19550;42.872;25.494;2022-10-26T05:44:13;96885.16;;;11.77;100.00
33185;BME280;19550;42.872;25.494;2022-10-26T05:46:40;96887.38;;;11.88;100.00
33185;BME280;19550;42.872;25.494;2022-10-26T05:49:07;96881.38;;;11.95;100.00
33185;BME280;19550;42.872;25.494;2022-10-26T05:51:34;96884.75;;;12.14;100.00
33185;BME280;19550;42.872;25.494;2022-10-26T05:54:03;96886.47;;;12.32;100.00
33185;BME280;19550;42.872;25.494;2022-10-26T05:56:34;96884.25;;;12.52;100.00
33185;BME280;19550;42.872;25.494;2022-10-26T05:59:02;96890.53;;;12.66;100.00
33185;BME280;19550;42.872;25.494;2022-10-26T06:01:36;96895.81;;;12.76;100.00
33185;BME280;19550;42.872;25.494;2022-10-26T06:04:17;96890.09;;;12.90;100.00
33185;BME280;19550;42.872;25.494;2022-10-26T06:06:51;96894.88;;;13.06;100.00
33185;BME280;19550;42.872;25.494;2022-10-26T06:09:22;96898.88;;;13.31;100.00
33185;BME280;19550;42.872;25.494;2022-10-26T06:11:50;96900.56;;;13.49;100.00
33185;BME280;19550;42.872;25.494;2022-10-26T06:14:17;96905.28;;;13.66;100.00
33185;BME280;19550;42.872;25.494;2022-10-26T06:16:58;96913.31;;;13.85;100.00
33185;BME280;19550;42.872;25.494;2022-10-26T06:19:40;96906.09;;;14.01;100.00
33185;BME280;19550;42.872;25.494;2022-10-26T06:22:22;96900.94;;;14.29;100.00
33185;BME280;19550;42.872;25.494;2022-10-26T06:25:01;96908.44;;;14.54;100.00
33185;BME280;19550;42.872;25.494;2022-10-26T06:27:35;96912.78;;;14.73;100.00
33185;BME280;19550;42.872;25.494;2022-10-26T06:30:07;96919.47;;;14.89;98.76
33185;BME280;19550;42.872;25.494;2022-10-26T06:32:36;96910.94;;;15.15;94.65
33185;BME280;19550;42.872;25.494;2022-10-26T06:35:18;96922.56;;;15.46;92.87
33185;BME280;19550;42.872;25.494;2022-10-26T06:37:47;96914.50;;;15.74;90.43
33185;BME280;19550;42.872;25.494;2022-10-26T06:40:17;96917.97;;;15.92;89.93
33185;BME280;19550;42.872;25.494;2022-10-26T06:42:44;96923.41;;;16.09;89.82
33185;BME280;19550;42.872;25.494;2022-10-26T06:45:12;96912.16;;;16.29;88.17
33185;BME280;19550;42.872;25.494;2022-10-26T06:47:45;96914.88;;;16.50;87.09
33185;BME280;19550;42.872;25.494;2022-10-26T06:50:26;96922.31;;;16.67;86.42
33185;BME280;19550;42.872;25.494;2022-10-26T06:53:01;96925.81;;;16.76;85.54
33185;BME280;19550;42.872;25.494;2022-10-26T06:55:41;96926.31;;;16.90;85.49
33185;BME280;19550;42.872;25.494;2022-10-26T06:58:11;96938.13;;;17.08;83.42
33185;BME280;19550;42.872;25.494;2022-10-26T07:00:40;96923.88;;;17.25;81.54
33185;BME280;19550;42.872;25.494;2022-10-26T07:03:08;96929.22;;;17.42;80.50
33185;BME280;19550;42.872;25.494;2022-10-26T07:05:35;96928.03;;;17.56;78.74
33185;BME280;19550;42.872;25.494;2022-10-26T07:08:02;96933.75;;;17.71;78.05
33185;BME280;19550;42.872;25.494;2022-10-26T07:10:29;96927.47;;;17.74;77.03
33185;BME280;19550;42.872;25.494;2022-10-26T07:12:57;96933.63;;;17.80;76.91
33185;BME280;19550;42.872;25.494;2022-10-26T07:15:24;96933.97;;;17.78;76.64
33185;BME280;19550;42.872;25.494;2022-10-26T07:17:51;96929.00;;;18.00;76.74
33185;BME280;19550;42.872;25.494;2022-10-26T07:20:19;96938.47;;;18.07;75.31
33185;BME280;19550;42.872;25.494;2022-10-26T07:22:50;96929.44;;;18.02;75.15
33185;BME280;19550;42.872;25.494;2022-10-26T07:25:17;96933.28;;;18.09;75.57
33185;BME280;19550;42.872;25.494;2022-10-26T07:27:44;96941.72;;;18.37;74.99
33185;BME280;19550;42.872;25.494;2022-10-26T07:30:13;96940.47;;;18.50;74.56
33185;BME280;19550;42.872;25.494;2022-10-26T07:32:41;96938.91;;;18.37;74.15
33185;BME280;19550;42.872;25.494;2022-10-26T07:35:08;96946.09;;;18.50;74.38
33185;BME280;19550;42.872;25.494;2022-10-26T07:37:34;96941.91;;;18.44;73.83
33185;BME280;19550;42.872;25.494;2022-10-26T07:40:02;96939.47;;;18.43;73.56
33185;BME280;19550;42.872;25.494;2022-10-26T07:42:29;96924.00;;;18.49;73.34
33185;BME280;19550;42.872;25.494;2022-10-26T07:44:56;96934.88;;;18.50;72.51
33185;BME280;19550;42.872;25.494;2022-10-26T07:47:24;96942.81;;;18.60;72.47
33185;BME280;19550;42.872;25.494;2022-10-26T07:49:51;96935.09;;;18.57;72.03
33185;BME280;19550;42.872;25.494;2022-10-26T07:52:18;96938.38;;;18.75;71.37
33185;BME280;19550;42.872;25.494;2022-10-26T07:54:45;96943.81;;;18.84;71.21
33185;BME280;19550;42.872;25.494;2022-10-26T07:57:11;96941.56;;;18.89;70.33
33185;BME280;19550;42.872;25.494;2022-10-26T07:59:38;96935.78;;;18.98;69.90
33185;BME280;19550;42.872;25.494;2022-10-26T08:02:05;96930.06;;;18.94;70.24
33185;BME280;19550;42.872;25.494;2022-10-26T08:04:33;96940.75;;;19.04;69.59
33185;BME280;19550;42.872;25.494;2022-10-26T08:07:00;96938.78;;;19.05;68.69
33185;BME280;19550;42.872;25.494;2022-10-26T08:09:27;96944.66;;;19.31;68.35
33185;BME280;19550;42.872;25.494;2022-10-26T08:11:54;96936.41;;;19.38;67.69
33185;BME280;19550;42.872;25.494;2022-10-26T08:14:20;96939.28;;;19.58;67.11
33185;BME280;19550;42.872;25.494;2022-10-26T08:16:47;96939.44;;;19.80;66.38
33185;BME280;19550;42.872;25.494;2022-10-26T08:19:16;96932.84;;;19.92;65.81
33185;BME280;19550;42.872;25.494;2022-10-26T08:21:45;96930.75;;;19.89;64.46
33185;BME280;19550;42.872;25.494;2022-10-26T08:24:11;96939.72;;;19.95;64.72
33185;BME280;19550;42.872;25.494;2022-10-26T08:26:38;96936.91;;;19.95;64.20
33185;BME280;19550;42.872;25.494;2022-10-26T08:29:05;96931.84;;;20.19;63.09
33185;BME280;19550;42.872;25.494;2022-10-26T08:31:32;96931.88;;;20.39;62.17
33185;BME280;19550;42.872;25.494;2022-10-26T08:33:59;96933.16;;;20.26;60.69
33185;BME280;19550;42.872;25.494;2022-10-26T08:36:28;96927.53;;;20.26;61.58
33185;BME280;19550;42.872;25.494;2022-10-26T08:38:56;96932.69;;;20.39;61.24
33185;BME280;19550;42.872;25.494;2022-10-26T08:41:32;96935.78;;;20.53;61.11
33185;BME280;19550;42.872;25.494;2022-10-26T08:44:04;96930.28;;;20.60;60.52
33185;BME280;19550;42.872;25.494;2022-10-26T08:46:35;96937.75;;;20.72;60.20
33185;BME280;19550;42.872;25.494;2022-10-26T08:49:13;96937.25;;;20.67;60.19
33185;BME280;19550;42.872;25.494;2022-10-26T08:51:43;96934.44;;;20.89;59.83
33185;BME280;19550;42.872;25.494;2022-10-26T08:54:16;96947.91;;;21.19;59.46
33185;BME280;19550;42.872;25.494;2022-10-26T08:56:47;96948.72;;;21.19;59.17
33185;BME280;19550;42.872;25.494;2022-10-26T08:59:26;96941.34;;;21.15;58.55
33185;BME280;19550;42.872;25.494;2022-10-26T09:01:55;96942.78;;;21.05;58.73
33185;BME280;19550;42.872;25.494;2022-10-26T09:04:25;96946.09;;;20.88;59.84
33185;BME280;19550;42.872;25.494;2022-10-26T09:06:58;96950.47;;;21.27;58.94
33185;BME280;19550;42.872;25.494;2022-10-26T09:09:36;96944.03;;;21.53;58.26
33185;BME280;19550;42.872;25.494;2022-10-26T09:12:12;96946.53;;;21.58;57.83
33185;BME280;19550;42.872;25.494;2022-10-26T09:14:48;96946.50;;;21.32;56.99
33185;BME280;19550;42.872;25.494;2022-10-26T09:17:22;96955.94;;;21.66;56.91
33185;BME280;19550;42.872;25.494;2022-10-26T09:20:09;96943.16;;;21.75;56.94
33185;BME280;19550;42.872;25.494;2022-10-26T09:22:45;96947.47;;;21.92;56.25
33185;BME280;19550;42.872;25.494;2022-10-26T09:25:20;96941.97;;;21.76;56.70
33185;BME280;19550;42.872;25.494;2022-10-26T09:27:49;96947.38;;;21.89;55.66
33185;BME280;19550;42.872;25.494;2022-10-26T09:30:20;96948.81;;;21.75;56.49
33185;BME280;19550;42.872;25.494;2022-10-26T09:32:48;96940.44;;;22.09;56.13
33185;BME280;19550;42.872;25.494;2022-10-26T09:35:18;96936.84;;;22.42;54.61
33185;BME280;19550;42.872;25.494;2022-10-26T09:37:48;96940.66;;;22.23;53.46
33185;BME280;19550;42.872;25.494;2022-10-26T09:40:22;96940.03;;;21.80;54.18
33185;BME280;19550;42.872;25.494;2022-10-26T09:42:56;96941.03;;;22.22;54.17
33185;BME280;19550;42.872;25.494;2022-10-26T09:45:29;96941.09;;;22.58;52.39
33185;BME280;19550;42.872;25.494;2022-10-26T09:47:59;96942.28;;;22.57;52.16
33185;BME280;19550;42.872;25.494;2022-10-26T09:50:33;96944.97;;;22.77;51.57
33185;BME280;19550;42.872;25.494;2022-10-26T09:53:00;96939.53;;;22.98;51.25
33185;BME280;19550;42.872;25.494;2022-10-26T09:55:29;96938.94;;;22.78;50.93
33185;BME280;19550;42.872;25.494;2022-10-26T09:58:00;96944.22;;;22.83;50.85
33185;BME280;19550;42.872;25.494;2022-10-26T10:00:28;96932.97;;;22.87;49.64
33185;BME280;19550;42.872;25.494;2022-10-26T10:02:56;96924.28;;;23.06;48.66
33185;BME280;19550;42.872;25.494;2022-10-26T10:05:27;96938.66;;;23.31;48.41
33185;BME280;19550;42.872;25.494;2022-10-26T10:08:18;96929.94;;;23.50;47.80
33185;BME280;19550;42.872;25.494;2022-10-26T10:11:02;96924.56;;;23.42;46.95
33185;BME280;19550;42.872;25.494;2022-10-26T10:13:35;96915.63;;;23.36;46.97
33185;BME280;19550;42.872;25.494;2022-10-26T10:16:09;96919.59;;;23.28;46.05
33185;BME280;19550;42.872;25.494;2022-10-26T10:18:36;96920.22;;;23.48;45.26
33185;BME280;19550;42.872;25.494;2022-10-26T10:21:05;96914.53;;;23.48;46.26
33185;BME280;19550;42.872;25.494;2022-10-26T10:23:35;96918.22;;;23.52;47.07
33185;BME280;19550;42.872;25.494;2022-10-26T10:26:08;96912.69;;;23.66;45.92
33185;BME280;19550;42.872;25.494;2022-10-26T10:28:36;96916.91;;;23.97;45.06
33185;BME280;19550;42.872;25.494;2022-10-26T10:31:05;96906.47;;;24.11;44.74
33185;BME280;19550;42.872;25.494;2022-10-26T10:33:37;96914.25;;;24.22;44.14
33185;BME280;19550;42.872;25.494;2022-10-26T10:36:08;96913.41;;;24.17;45.02
33185;BME280;19550;42.872;25.494;2022-10-26T10:38:37;96911.78;;;24.20;45.49
33185;BME280;19550;42.872;25.494;2022-10-26T10:41:17;96901.38;;;24.42;44.81
33185;BME280;19550;42.872;25.494;2022-10-26T10:43:51;96909.97;;;24.63;44.07
33185;BME280;19550;42.872;25.494;2022-10-26T10:46:20;96898.63;;;24.60;44.44
33185;BME280;19550;42.872;25.494;2022-10-26T10:48:52;96910.41;;;24.72;43.20
33185;BME280;19550;42.872;25.494;2022-10-26T10:51:21;96904.19;;;24.35;42.89
33185;BME280;19550;42.872;25.494;2022-10-26T10:53:50;96898.97;;;24.47;43.47
33185;BME280;19550;42.872;25.494;2022-10-26T10:56:30;96897.72;;;24.38;43.71
33185;BME280;19550;42.872;25.494;2022-10-26T10:59:22;96886.81;;;24.47;43.51
33185;BME280;19550;42.872;25.494;2022-10-26T11:02:01;96894.59;;;24.75;42.88
33185;BME280;19550;42.872;25.494;2022-10-26T11:04:47;96886.13;;;24.85;43.71
33185;BME280;19550;42.872;25.494;2022-10-26T11:07:20;96890.22;;;25.09;42.59
33185;BME280;19550;42.872;25.494;2022-10-26T11:09:48;96886.97;;;25.00;42.01
33185;BME280;19550;42.872;25.494;2022-10-26T11:12:22;96888.59;;;24.90;42.58
33185;BME280;19550;42.872;25.494;2022-10-26T11:14:54;96891.44;;;25.15;42.48
33185;BME280;19550;42.872;25.494;2022-10-26T11:17:25;96886.19;;;25.03;42.57
33185;BME280;19550;42.872;25.494;2022-10-26T11:19:56;96878.88;;;25.20;42.08
33185;BME280;19550;42.872;25.494;2022-10-26T11:22:28;96884.88;;;24.86;42.94
33185;BME280;19550;42.872;25.494;2022-10-26T11:25:00;96874.81;;;24.96;43.66
33185;BME280;19550;42.872;25.494;2022-10-26T11:27:34;96882.44;;;24.81;43.58
33185;BME280;19550;42.872;25.494;2022-10-26T11:30:08;96881.72;;;25.16;43.69
33185;BME280;19550;42.872;25.494;2022-10-26T11:32:42;96880.50;;;25.21;42.37
33185;BME280;19550;42.872;25.494;2022-10-26T11:35:12;96884.19;;;25.39;42.53
33185;BME280;19550;42.872;25.494;2022-10-26T11:37:44;96895.91;;;25.73;41.29
33185;BME280;19550;42.872;25.494;2022-10-26T11:40:23;96876.84;;;25.56;40.63
33185;BME280;19550;42.872;25.494;2022-10-26T11:43:02;96878.06;;;25.83;41.15
33185;BME280;19550;42.872;25.494;2022-10-26T11:45:34;96875.66;;;25.46;40.75
33185;BME280;19550;42.872;25.494;2022-10-26T11:48:08;96880.94;;;25.37;40.55
33185;BME280;19550;42.872;25.494;2022-10-26T11:50:40;96883.75;;;25.33;39.75
33185;BME280;19550;42.872;25.494;2022-10-26T11:53:11;96882.13;;;25.36;40.01
33185;BME280;19550;42.872;25.494;2022-10-26T11:55:40;96878.88;;;25.48;40.31
33185;BME280;19550;42.872;25.494;2022-10-26T11:58:09;96877.69;;;25.24;39.94
33185;BME280;19550;42.872;25.494;2022-10-26T12:00:39;96878.88;;;25.02;40.11
33185;BME280;19550;42.872;25.494;2022-10-26T12:03:10;96876.06;;;24.99;41.64
33185;BME280;19550;42.872;25.494;2022-10-26T12:05:43;96875.22;;;24.91;40.22
33185;BME280;19550;42.872;25.494;2022-10-26T12:08:15;96882.78;;;24.48;40.77
33185;BME280;19550;42.872;25.494;2022-10-26T12:10:48;96881.88;;;24.23;42.69
33185;BME280;19550;42.872;25.494;2022-10-26T12:13:24;96878.75;;;23.73;42.76
33185;BME280;19550;42.872;25.494;2022-10-26T12:15:58;96882.31;;;23.59;43.15
33185;BME280;19550;42.872;25.494;2022-10-26T12:18:34;96877.22;;;23.35;43.23
33185;BME280;19550;42.872;25.494;2022-10-26T12:21:05;96890.91;;;23.26;42.07
33185;BME280;19550;42.872;25.494;2022-10-26T12:23:34;96882.81;;;23.24;42.23
33185;BME280;19550;42.872;25.494;2022-10-26T12:35:39;96875.69;;;22.93;43.78
33185;BME280;19550;42.872;25.494;2022-10-26T12:41:23;96877.66;;;22.56;44.22
33185;BME280;19550;42.872;25.494;2022-10-26T12:43:55;96882.78;;;22.43;44.74
33185;BME280;19550;42.872;25.494;2022-10-26T12:46:41;96875.31;;;22.25;45.73
33185;BME280;19550;42.872;25.494;2022-10-26T12:52:30;96886.28;;;22.00;46.41
33185;BME280;19550;42.872;25.494;2022-10-26T12:55:17;96885.16;;;22.08;46.27
33185;BME280;19550;42.872;25.494;2022-10-26T12:57:52;96883.63;;;21.84;46.91
33185;BME280;19550;42.872;25.494;2022-10-26T13:00:24;96875.44;;;21.75;46.88
33185;BME280;19550;42.872;25.494;2022-10-26T13:03:01;96886.53;;;21.91;45.98
33185;BME280;19550;42.872;25.494;2022-10-26T13:08:26;96888.88;;;21.86;45.18
33185;BME280;19550;42.872;25.494;2022-10-26T13:11:01;96889.91;;;21.74;46.60
33185;BME280;19550;42.872;25.494;2022-10-26T13:13:30;96896.72;;;21.69;45.52
33185;BME280;19550;42.872;25.494;2022-10-26T13:16:02;96892.22;;;21.65;45.45
33185;BME280;19550;42.872;25.494;2022-10-26T13:18:29;96888.94;;;21.63;45.99
33185;BME280;19550;42.872;25.494;2022-10-26T13:21:04;96889.44;;;21.42;46.47
33185;BME280;19550;42.872;25.494;2022-10-26T13:23:36;96897.97;;;21.46;46.66